createdAt,value
2023-05-01T00:00:15.990Z,48.78
2023-05-01T00:01:19.735Z,49.01
2023-05-01T00:02:23.439Z,49.38
2023-05-01T00:03:27.332Z,48.88
2023-05-01T00:04:31.116Z,48.74
2023-05-01T00:05:34.811Z,49.21
2023-05-01T00:06:38.666Z,49.26
2023-05-01T00:07:42.286Z,49.01
2023-05-01T00:08:45.945Z,48.89
2023-05-01T00:09:49.631Z,48.50
2023-05-01T00:10:53.342Z,48.90
2023-05-01T00:11:57.061Z,48.86
2023-05-01T00:13:00.720Z,49.15
2023-05-01T00:14:12.003Z,48.55
2023-05-01T00:15:17.570Z,48.38
2023-05-01T00:16:23.790Z,48.61
2023-05-01T00:17:27.691Z,48.50
2023-05-01T00:18:33.943Z,48.61
2023-05-01T00:19:39.374Z,48.32
2023-05-01T00:20:43.102Z,48.74
2023-05-01T00:21:46.841Z,48.08
2023-05-01T00:22:50.606Z,48.36
2023-05-01T00:23:54.597Z,48.64
2023-05-01T00:24:58.241Z,48.78
2023-05-01T00:26:01.883Z,48.33
2023-05-01T00:27:05.585Z,48.78
2023-05-01T00:28:09.326Z,47.99
2023-05-01T00:29:13.310Z,48.13
2023-05-01T00:30:18.849Z,48.46
2023-05-01T00:31:22.673Z,48.65
2023-05-01T00:32:26.428Z,48.06
2023-05-01T00:33:30.327Z,48.08
2023-05-01T00:34:34.421Z,48.68
2023-05-01T00:35:38.342Z,48.03
2023-05-01T00:36:42.514Z,48.01
2023-05-01T00:37:46.255Z,47.94
2023-05-01T00:38:49.936Z,48.04
2023-05-01T00:39:53.860Z,47.87
2023-05-01T00:40:58.299Z,48.03
2023-05-01T00:42:01.893Z,48.38
2023-05-01T00:43:05.585Z,47.43
2023-05-01T00:44:09.444Z,47.78
2023-05-01T00:45:13.294Z,47.35
2023-05-01T00:46:21.764Z,47.16
2023-05-01T00:47:25.602Z,47.36
2023-05-01T00:48:29.333Z,46.97
2023-05-01T00:49:34.273Z,47.94
2023-05-01T00:50:38.199Z,47.58
2023-05-01T00:51:42.487Z,47.12
2023-05-01T00:52:46.836Z,47.09
2023-05-01T00:53:50.652Z,47.43
2023-05-01T00:54:54.795Z,47.18
2023-05-01T00:56:00.294Z,47.23
2023-05-01T00:57:04.245Z,46.78
2023-05-01T00:58:08.371Z,47.57
2023-05-01T00:59:12.372Z,47.31
2023-05-01T01:00:16.426Z,46.85
2023-05-01T01:01:22.356Z,46.82
2023-05-01T01:02:26.161Z,47.38
2023-05-01T01:03:31.496Z,47.01
2023-05-01T01:04:35.597Z,47.18
2023-05-01T01:05:43.921Z,46.35
2023-05-01T01:06:55.673Z,46.19
2023-05-01T01:08:11.208Z,47.01
2023-05-01T01:09:24.463Z,47.22
2023-05-01T01:10:36.563Z,46.81
2023-05-01T01:11:48.346Z,46.31
2023-05-01T01:13:05.106Z,45.83
2023-05-01T01:14:12.542Z,46.17
2023-05-01T01:15:20.810Z,46.43
2023-05-01T01:16:33.071Z,46.16
2023-05-01T01:17:45.709Z,46.00
2023-05-01T01:18:55.690Z,46.45
2023-05-01T01:20:27.812Z,46.57
2023-05-01T01:21:36.010Z,46.88
2023-05-01T01:22:43.025Z,45.72
2023-05-01T01:24:19.732Z,46.50
2023-05-01T01:25:49.614Z,45.55
2023-05-01T01:27:28.545Z,45.92
2023-05-01T01:28:56.271Z,45.84
2023-05-01T01:30:25.686Z,45.96
2023-05-01T01:31:37.801Z,45.54
2023-05-01T01:33:11.417Z,45.03
2023-05-01T01:34:21.781Z,45.67
2023-05-01T01:35:27.994Z,46.17
2023-05-01T01:36:50.636Z,45.64
2023-05-01T01:38:02.435Z,46.08
2023-05-01T01:39:14.079Z,45.43
2023-05-01T01:40:23.304Z,45.27
2023-05-01T01:41:34.353Z,45.57
2023-05-01T01:42:42.732Z,45.82
2023-05-01T01:43:54.224Z,45.33
2023-05-01T01:45:02.328Z,45.60
2023-05-01T01:46:08.277Z,44.95
2023-05-01T01:47:17.097Z,45.70
2023-05-01T01:48:26.305Z,45.79
2023-05-01T01:49:33.680Z,44.23
2023-05-01T01:50:40.041Z,44.63
2023-05-01T01:51:44.683Z,45.33
2023-05-01T01:52:51.202Z,44.92
2023-05-01T01:53:57.932Z,45.11
2023-05-01T01:55:06.184Z,44.69
2023-05-01T01:56:11.109Z,44.73
2023-05-01T01:57:17.924Z,44.97
2023-05-01T01:58:23.555Z,44.59
2023-05-01T01:59:31.572Z,44.79
2023-05-01T02:00:36.967Z,44.48
2023-05-01T02:01:42.479Z,44.58
2023-05-01T02:02:47.768Z,44.45
2023-05-01T02:03:54.121Z,44.81
2023-05-01T02:05:00.519Z,44.34
2023-05-01T02:06:07.678Z,43.55
2023-05-01T02:07:13.913Z,43.72
2023-05-01T02:08:18.544Z,44.52
2023-05-01T02:09:24.269Z,44.03
2023-05-01T02:10:30.440Z,43.72
2023-05-01T02:11:36.703Z,44.32
2023-05-01T02:12:41.011Z,44.55
2023-05-01T02:13:46.659Z,44.30
2023-05-01T02:14:52.289Z,44.15
2023-05-01T02:15:57.261Z,43.78
2023-05-01T02:17:02.002Z,43.80
2023-05-01T02:18:07.316Z,43.29
2023-05-01T02:19:11.194Z,44.35
2023-05-01T02:20:17.410Z,44.09
2023-05-01T02:21:21.571Z,43.88
2023-05-01T02:22:27.161Z,43.54
2023-05-01T02:23:31.568Z,43.22
2023-05-01T02:24:36.577Z,43.42
2023-05-01T02:25:41.606Z,43.35
2023-05-01T02:26:50.689Z,43.77
2023-05-01T02:27:58.627Z,43.54
2023-05-01T02:29:02.421Z,43.62
2023-05-01T02:30:06.852Z,43.34
2023-05-01T02:31:11.338Z,43.40
2023-05-01T02:32:14.956Z,43.25
2023-05-01T02:33:18.648Z,43.79
2023-05-01T02:34:22.490Z,43.56
2023-05-01T02:35:27.855Z,42.91
2023-05-01T02:36:31.620Z,43.45
2023-05-01T02:37:35.364Z,43.02
2023-05-01T02:38:39.040Z,43.16
2023-05-01T02:39:43.256Z,43.04
2023-05-01T02:41:04.580Z,43.20
2023-05-01T02:42:10.872Z,42.72
2023-05-01T02:43:17.281Z,42.59
2023-05-01T02:44:22.141Z,42.89
2023-05-01T02:45:26.738Z,42.63
2023-05-01T02:46:34.086Z,42.81
2023-05-01T02:47:43.510Z,42.99
2023-05-01T02:48:49.001Z,42.07
2023-05-01T02:49:54.178Z,42.55
2023-05-01T02:51:01.323Z,42.46
2023-05-01T02:52:06.166Z,41.30
2023-05-01T02:53:10.426Z,42.22
2023-05-01T02:54:15.275Z,41.77
2023-05-01T02:55:19.382Z,41.66
2023-05-01T02:56:23.352Z,42.07
2023-05-01T02:57:27.413Z,42.04
2023-05-01T02:58:32.687Z,41.65
2023-05-01T02:59:36.408Z,41.81
2023-05-01T03:00:40.106Z,41.58
2023-05-01T03:01:43.889Z,41.85
2023-05-01T03:02:48.476Z,41.59
2023-05-01T03:03:52.328Z,41.97
2023-05-01T03:04:56.063Z,41.61
2023-05-01T03:06:01.451Z,41.22
2023-05-01T03:07:05.311Z,41.46
2023-05-01T03:08:09.410Z,41.19
2023-05-01T03:09:13.249Z,41.03
2023-05-01T03:10:16.987Z,41.45
2023-05-01T03:11:20.615Z,40.78
2023-05-01T03:12:24.344Z,41.11
2023-05-01T03:13:28.080Z,41.03
2023-05-01T03:14:31.836Z,40.57
2023-05-01T03:15:35.562Z,39.83
2023-05-01T03:16:39.354Z,40.95
2023-05-01T03:17:43.178Z,39.92
2023-05-01T03:18:47.002Z,40.32
2023-05-01T03:19:50.713Z,40.19
2023-05-01T03:20:55.016Z,40.62
2023-05-01T03:22:00.519Z,40.53
2023-05-01T03:23:04.289Z,40.83
2023-05-01T03:24:09.988Z,40.38
2023-05-01T03:25:13.670Z,40.13
2023-05-01T03:26:17.345Z,39.84
2023-05-01T03:27:21.042Z,40.00
2023-05-01T03:28:24.820Z,40.21
2023-05-01T03:29:29.036Z,40.90
2023-05-01T03:30:35.082Z,40.01
2023-05-01T03:31:42.793Z,39.75
2023-05-01T03:32:46.737Z,40.10
2023-05-01T03:33:50.503Z,39.29
2023-05-01T03:34:54.276Z,40.02
2023-05-01T03:36:04.647Z,40.31
2023-05-01T03:37:10.150Z,38.69
2023-05-01T03:38:13.925Z,38.61
2023-05-01T03:39:17.638Z,39.57
2023-05-01T03:40:21.499Z,39.62
2023-05-01T03:41:25.272Z,39.55
2023-05-01T03:42:40.664Z,39.89
2023-05-01T03:43:44.428Z,40.13
2023-05-01T03:44:48.107Z,39.97
2023-05-01T03:45:52.165Z,39.73
2023-05-01T03:46:55.833Z,39.28
2023-05-01T03:47:59.829Z,39.72
2023-05-01T03:49:03.533Z,39.02
2023-05-01T03:50:08.366Z,39.48
2023-05-01T03:51:12.047Z,39.61
2023-05-01T03:52:17.403Z,39.38
2023-05-01T03:53:21.174Z,38.86
2023-05-01T03:54:24.989Z,39.33
2023-05-01T03:55:28.709Z,40.08
2023-05-01T03:56:32.406Z,39.91
2023-05-01T03:57:36.155Z,39.31
2023-05-01T03:58:39.917Z,39.52
2023-05-01T03:59:43.689Z,39.38
2023-05-01T04:00:47.484Z,39.22
2023-05-01T04:01:51.276Z,39.29
2023-05-01T04:02:55.220Z,39.77
2023-05-01T04:03:59.018Z,40.15
2023-05-01T04:05:02.961Z,39.14
2023-05-01T04:06:06.835Z,39.73
2023-05-01T04:07:10.693Z,40.35
2023-05-01T04:08:16.018Z,38.38
2023-05-01T04:09:19.750Z,38.66
2023-05-01T04:10:23.940Z,40.10
2023-05-01T04:11:27.786Z,39.81
2023-05-01T04:12:31.647Z,39.63
2023-05-01T04:13:35.307Z,39.29
2023-05-01T04:14:38.973Z,39.62
2023-05-01T04:15:46.099Z,39.35
2023-05-01T04:16:50.086Z,39.74
2023-05-01T04:17:53.810Z,39.09
2023-05-01T04:18:57.559Z,40.01
2023-05-01T04:20:01.228Z,39.81
2023-05-01T04:21:04.993Z,39.49
2023-05-01T04:22:08.710Z,39.54
2023-05-01T04:23:12.402Z,40.10
2023-05-01T04:24:17.778Z,38.80
2023-05-01T04:25:21.505Z,38.82
2023-05-01T04:26:29.048Z,39.25
2023-05-01T04:28:58.918Z,38.46
2023-05-01T04:30:02.759Z,37.65
2023-05-01T04:31:06.597Z,37.71
2023-05-01T04:32:10.431Z,38.11
2023-05-01T04:33:19.413Z,38.24
2023-05-01T04:34:36.737Z,37.98
2023-05-01T04:35:41.079Z,40.57
2023-05-01T04:36:44.844Z,38.27
2023-05-01T04:37:50.516Z,37.47
2023-05-01T04:40:23.503Z,37.53
2023-05-01T04:41:27.817Z,36.61
2023-05-01T04:42:37.513Z,35.99
2023-05-01T04:43:53.451Z,36.28
2023-05-01T04:44:57.442Z,36.54
2023-05-01T04:46:09.039Z,37.20
2023-05-01T04:47:12.866Z,36.51
2023-05-01T04:48:16.747Z,37.09
2023-05-01T04:49:20.698Z,35.82
2023-05-01T04:50:24.437Z,36.45
2023-05-01T04:51:28.152Z,35.54
2023-05-01T04:52:31.897Z,35.27
2023-05-01T04:53:35.566Z,35.21
2023-05-01T04:54:39.252Z,35.75
2023-05-01T04:55:45.063Z,34.85
2023-05-01T04:56:48.833Z,35.07
2023-05-01T04:57:52.598Z,35.06
2023-05-01T04:58:56.270Z,35.07
2023-05-01T05:00:00.046Z,35.87
2023-05-01T05:01:03.861Z,35.50
2023-05-01T05:02:49.052Z,35.28
2023-05-01T05:03:53.095Z,35.40
2023-05-01T05:04:56.861Z,35.59
2023-05-01T05:06:00.579Z,35.01
2023-05-01T05:07:04.337Z,36.00
2023-05-01T05:08:08.086Z,36.51
2023-05-01T05:09:11.830Z,36.20
2023-05-01T05:10:15.542Z,35.87
2023-05-01T05:11:21.158Z,36.38
2023-05-01T05:12:24.895Z,36.45
2023-05-01T05:13:28.937Z,35.91
2023-05-01T05:14:32.753Z,36.12
2023-05-01T05:15:36.427Z,36.50
2023-05-01T05:16:40.230Z,36.10
2023-05-01T05:17:43.962Z,36.79
2023-05-01T05:18:47.703Z,37.03
2023-05-01T05:19:51.438Z,35.68
2023-05-01T05:20:55.186Z,35.10
2023-05-01T05:21:58.908Z,36.04
2023-05-01T05:23:02.547Z,35.00
2023-05-01T05:24:06.608Z,35.82
2023-05-01T05:25:10.939Z,35.81
2023-05-01T05:26:14.609Z,35.95
2023-05-01T05:27:20.244Z,35.14
2023-05-01T05:28:24.062Z,35.26
2023-05-01T05:29:27.770Z,35.27
2023-05-01T05:30:31.532Z,34.86
2023-05-01T05:31:35.323Z,35.01
2023-05-01T05:32:39.107Z,34.92
2023-05-01T05:33:42.872Z,35.03
2023-05-01T05:34:46.473Z,35.39
2023-05-01T05:35:50.204Z,34.75
2023-05-01T05:36:53.863Z,35.11
2023-05-01T05:37:57.487Z,35.10
2023-05-01T05:39:01.514Z,35.04
2023-05-01T05:40:05.733Z,35.43
2023-05-01T05:41:09.395Z,34.66
2023-05-01T05:42:15.787Z,34.72
2023-05-01T05:43:21.216Z,35.29
2023-05-01T05:44:25.011Z,34.44
2023-05-01T05:45:28.635Z,35.39
2023-05-01T05:46:32.380Z,34.84
2023-05-01T05:47:36.065Z,34.46
2023-05-01T05:48:39.703Z,34.46
2023-05-01T05:49:43.541Z,35.12
2023-05-01T05:50:47.173Z,35.28
2023-05-01T05:51:50.821Z,35.51
2023-05-01T05:52:54.463Z,34.34
2023-05-01T05:53:58.121Z,34.99
2023-05-01T05:55:01.847Z,34.70
2023-05-01T05:56:05.912Z,34.82
2023-05-01T05:57:09.604Z,34.16
2023-05-01T05:58:13.450Z,34.44
2023-05-01T05:59:18.786Z,32.82
2023-05-01T06:00:22.661Z,33.47
2023-05-01T06:01:26.605Z,33.35
2023-05-01T06:02:30.439Z,33.20
2023-05-01T06:03:34.558Z,33.39
2023-05-01T06:04:38.313Z,33.38
2023-05-01T06:05:42.095Z,33.84
2023-05-01T06:06:45.832Z,33.82
2023-05-01T06:07:49.513Z,33.58
2023-05-01T06:08:53.575Z,33.03
2023-05-01T06:09:57.773Z,32.83
2023-05-01T06:11:01.641Z,32.58
2023-05-01T06:12:05.802Z,33.58
2023-05-01T06:13:13.943Z,33.40
2023-05-01T06:14:19.773Z,33.57
2023-05-01T06:15:23.498Z,32.47
2023-05-01T06:16:27.309Z,32.78
2023-05-01T06:17:31.193Z,33.56
2023-05-01T06:18:34.910Z,32.90
2023-05-01T06:19:39.265Z,33.14
2023-05-01T06:20:43.052Z,32.62
2023-05-01T06:21:46.733Z,32.36
2023-05-01T06:22:50.429Z,33.32
2023-05-01T06:23:54.092Z,32.22
2023-05-01T06:24:57.711Z,32.73
2023-05-01T06:26:01.377Z,32.80
2023-05-01T06:27:05.150Z,33.25
2023-05-01T06:28:08.884Z,31.19
2023-05-01T06:29:12.587Z,32.35
2023-05-01T06:30:17.970Z,32.36
2023-05-01T06:31:21.880Z,32.10
2023-05-01T06:32:25.665Z,32.52
2023-05-01T06:33:29.461Z,32.27
2023-05-01T06:34:33.149Z,31.99
2023-05-01T06:35:37.277Z,32.53
2023-05-01T06:36:40.881Z,31.00
2023-05-01T06:37:44.596Z,32.83
2023-05-01T06:38:48.372Z,32.30
2023-05-01T06:39:52.085Z,32.10
2023-05-01T06:40:55.920Z,31.52
2023-05-01T06:41:59.620Z,31.13
2023-05-01T06:43:03.480Z,31.78
2023-05-01T06:44:07.226Z,31.39
2023-05-01T06:45:11.045Z,31.77
2023-05-01T06:46:16.453Z,31.24
2023-05-01T06:47:20.254Z,31.34
2023-05-01T06:48:24.157Z,32.32
2023-05-01T06:49:28.002Z,32.39
2023-05-01T06:50:31.645Z,32.08
2023-05-01T06:51:35.350Z,31.45
2023-05-01T06:52:39.002Z,31.97
2023-05-01T06:53:42.738Z,31.39
2023-05-01T06:54:46.446Z,31.06
2023-05-01T06:55:50.075Z,32.05
2023-05-01T06:56:53.847Z,33.18
2023-05-01T06:57:57.426Z,33.87
2023-05-01T06:59:01.096Z,34.04
2023-05-01T07:00:05.534Z,33.85
2023-05-01T07:01:09.226Z,33.52
2023-05-01T07:02:14.847Z,34.19
2023-05-01T07:03:18.633Z,33.98
2023-05-01T07:04:22.438Z,34.52
2023-05-01T07:05:26.248Z,34.12
2023-05-01T07:06:29.949Z,34.64
2023-05-01T07:07:33.833Z,34.77
2023-05-01T07:08:37.675Z,34.69
2023-05-01T07:09:42.241Z,34.68
2023-05-01T07:10:46.048Z,34.67
2023-05-01T07:11:49.705Z,35.17
2023-05-01T07:12:53.439Z,34.85
2023-05-01T07:13:57.099Z,35.30
2023-05-01T07:15:00.846Z,35.47
2023-05-01T07:16:04.630Z,35.79
2023-05-01T07:17:08.411Z,36.08
2023-05-01T07:18:13.908Z,35.82
2023-05-01T07:19:17.665Z,35.65
2023-05-01T07:20:21.385Z,35.83
2023-05-01T07:21:25.105Z,35.46
2023-05-01T07:22:28.955Z,35.52
2023-05-01T07:23:32.720Z,36.00
2023-05-01T07:24:36.463Z,36.05
2023-05-01T07:25:40.201Z,36.66
2023-05-01T07:26:43.857Z,35.96
2023-05-01T07:27:47.468Z,37.30
2023-05-01T07:28:51.203Z,36.84
2023-05-01T07:29:56.844Z,37.29
2023-05-01T07:31:00.880Z,36.21
2023-05-01T07:32:04.609Z,36.09
2023-05-01T07:33:08.367Z,37.20
2023-05-01T07:34:13.747Z,36.34
2023-05-01T07:35:17.624Z,37.12
2023-05-01T07:36:21.280Z,37.23
2023-05-01T07:37:25.083Z,36.55
2023-05-01T07:38:28.781Z,37.50
2023-05-01T07:39:32.428Z,36.94
2023-05-01T07:40:36.167Z,37.25
2023-05-01T07:41:39.921Z,36.55
2023-05-01T07:42:43.591Z,36.49
2023-05-01T07:43:47.278Z,38.12
2023-05-01T07:44:52.134Z,38.06
2023-05-01T07:45:59.677Z,37.67
2023-05-01T07:47:06.664Z,37.40
2023-05-01T07:48:10.471Z,37.59
2023-05-01T07:49:15.842Z,37.58
2023-05-01T07:50:19.637Z,38.21
2023-05-01T07:51:23.447Z,37.49
2023-05-01T07:52:27.145Z,36.79
2023-05-01T07:53:30.873Z,36.40
2023-05-01T07:54:34.528Z,36.79
2023-05-01T07:55:38.266Z,37.51
2023-05-01T07:56:41.966Z,36.86
2023-05-01T07:57:45.564Z,37.08
2023-05-01T07:58:49.266Z,37.43
2023-05-01T07:59:55.847Z,36.93
2023-05-01T08:00:59.691Z,36.76
2023-05-01T08:02:03.428Z,37.44
2023-05-01T08:03:07.405Z,37.61
2023-05-01T08:04:11.384Z,37.04
2023-05-01T08:05:16.722Z,37.06
2023-05-01T08:06:20.369Z,37.25
2023-05-01T08:07:24.097Z,36.76
2023-05-01T08:08:27.776Z,34.92
2023-05-01T08:09:31.518Z,36.23
2023-05-01T08:10:35.225Z,36.14
2023-05-01T08:11:38.975Z,36.31
2023-05-01T08:12:42.600Z,36.70
2023-05-01T08:13:46.320Z,36.37
2023-05-01T08:14:50.019Z,36.60
2023-05-01T08:15:53.852Z,37.89
2023-05-01T08:16:57.576Z,38.49
2023-05-01T08:18:01.277Z,37.29
2023-05-01T08:19:05.061Z,37.13
2023-05-01T08:20:09.857Z,36.52
2023-05-01T08:21:15.191Z,35.62
2023-05-01T08:22:18.911Z,36.83
2023-05-01T08:23:22.678Z,37.29
2023-05-01T08:24:26.344Z,36.53
2023-05-01T08:25:30.099Z,36.69
2023-05-01T08:26:33.880Z,36.72
2023-05-01T08:27:37.535Z,36.94
2023-05-01T08:28:41.146Z,37.14
2023-05-01T08:29:44.828Z,36.21
2023-05-01T08:30:48.535Z,36.47
2023-05-01T08:31:52.306Z,36.15
2023-05-01T08:32:56.156Z,35.87
2023-05-01T08:33:59.941Z,36.60
2023-05-01T08:35:03.583Z,36.03
2023-05-01T08:36:07.775Z,34.86
2023-05-01T08:37:13.253Z,35.00
2023-05-01T08:38:16.956Z,35.25
2023-05-01T08:39:20.669Z,35.16
2023-05-01T08:40:26.874Z,35.60
2023-05-01T08:41:31.317Z,34.84
2023-05-01T08:42:36.029Z,35.02
2023-05-01T08:43:40.236Z,35.52
2023-05-01T08:44:44.062Z,34.81
2023-05-01T08:45:49.111Z,34.76
2023-05-01T08:47:02.312Z,34.34
2023-05-01T08:48:07.868Z,34.77
2023-05-01T08:49:13.773Z,33.75
2023-05-01T08:50:19.001Z,34.49
2023-05-01T08:51:23.263Z,35.09
2023-05-01T08:52:29.861Z,33.71
2023-05-01T08:53:34.267Z,34.09
2023-05-01T08:54:40.256Z,34.40
2023-05-01T08:55:49.485Z,33.78
2023-05-01T08:56:54.357Z,33.54
2023-05-01T08:57:59.947Z,33.54
2023-05-01T08:59:06.006Z,33.83
2023-05-01T09:00:15.774Z,33.19
2023-05-01T09:01:21.330Z,34.21
2023-05-01T09:02:27.019Z,32.99
2023-05-01T09:03:33.778Z,33.33
2023-05-01T09:04:39.028Z,33.37
2023-05-01T09:05:42.686Z,33.49
2023-05-01T09:06:46.710Z,33.61
2023-05-01T09:07:52.083Z,32.89
2023-05-01T09:08:55.788Z,33.43
2023-05-01T09:09:59.624Z,33.17
2023-05-01T09:11:04.707Z,33.39
2023-05-01T09:12:18.780Z,33.52
2023-05-01T09:13:22.528Z,33.19
2023-05-01T09:14:26.268Z,32.75
2023-05-01T09:15:30.916Z,32.93
2023-05-01T09:16:34.603Z,33.79
2023-05-01T09:17:38.596Z,33.38
2023-05-01T09:18:42.671Z,32.56
2023-05-01T09:19:46.419Z,32.79
2023-05-01T09:20:50.269Z,32.43
2023-05-01T09:21:55.454Z,32.79
2023-05-01T09:23:01.015Z,33.54
2023-05-01T09:24:04.874Z,33.99
2023-05-01T09:25:09.377Z,33.87
2023-05-01T09:26:13.150Z,32.71
2023-05-01T09:27:17.339Z,33.32
2023-05-01T09:28:39.818Z,33.78
2023-05-01T09:29:45.282Z,33.70
2023-05-01T09:30:49.007Z,34.22
2023-05-01T09:31:52.968Z,34.04
2023-05-01T09:33:06.183Z,34.09
2023-05-01T09:34:09.946Z,34.14
2023-05-01T09:35:15.703Z,34.81
2023-05-01T09:36:19.497Z,35.12
2023-05-01T09:37:29.760Z,34.25
2023-05-01T09:38:35.105Z,34.50
2023-05-01T09:39:39.608Z,34.76
2023-05-01T09:40:43.334Z,34.42
2023-05-01T09:41:52.856Z,33.92
2023-05-01T09:42:56.643Z,34.28
2023-05-01T09:44:00.653Z,34.22
2023-05-01T09:45:06.157Z,34.70
2023-05-01T09:46:11.279Z,34.69
2023-05-01T09:47:21.605Z,35.48
2023-05-01T09:48:25.398Z,34.68
2023-05-01T09:49:47.985Z,33.59
2023-05-01T09:50:51.723Z,33.85
2023-05-01T09:52:12.221Z,33.81
2023-05-01T09:53:15.930Z,33.77
2023-05-01T09:54:21.486Z,33.16
2023-05-01T09:55:25.979Z,33.49
2023-05-01T09:56:31.239Z,34.11
2023-05-01T09:57:37.011Z,33.31
2023-05-01T09:58:41.287Z,33.58
2023-05-01T10:00:02.234Z,33.60
2023-05-01T10:01:06.080Z,33.71
2023-05-01T10:02:29.360Z,34.35
2023-05-01T10:03:35.003Z,33.76
2023-05-01T10:04:39.312Z,34.40
2023-05-01T10:05:46.408Z,34.39
2023-05-01T10:06:50.374Z,34.33
2023-05-01T10:07:59.231Z,34.10
2023-05-01T10:09:03.445Z,34.41
2023-05-01T10:10:22.122Z,34.44
2023-05-01T10:11:25.964Z,34.38
2023-05-01T10:12:30.453Z,34.77
2023-05-01T10:13:34.116Z,34.75
2023-05-01T10:14:51.946Z,35.09
2023-05-01T10:15:55.794Z,34.71
2023-05-01T10:16:59.843Z,35.08
2023-05-01T10:18:03.879Z,34.96
2023-05-01T10:19:08.162Z,34.79
2023-05-01T10:20:13.236Z,35.46
2023-05-01T10:21:16.932Z,34.59
2023-05-01T10:22:20.675Z,34.63
2023-05-01T10:23:25.514Z,35.00
2023-05-01T10:24:29.293Z,35.33
2023-05-01T10:25:34.856Z,35.19
2023-05-01T10:26:38.828Z,34.14
2023-05-01T10:27:43.001Z,34.54
2023-05-01T10:28:48.824Z,35.20
2023-05-01T10:29:54.910Z,35.01
2023-05-01T10:30:59.643Z,34.92
2023-05-01T10:32:04.983Z,35.00
2023-05-01T10:33:08.839Z,34.84
2023-05-01T10:34:16.794Z,34.23
2023-05-01T10:35:24.789Z,35.04
2023-05-01T10:36:35.154Z,34.96
2023-05-01T10:37:47.250Z,35.03
2023-05-01T10:38:51.104Z,34.94
2023-05-01T10:39:54.899Z,34.87
2023-05-01T10:41:00.309Z,35.13
2023-05-01T10:42:06.082Z,35.46
2023-05-01T10:43:18.095Z,35.01
2023-05-01T10:44:22.659Z,34.74
2023-05-01T10:45:35.959Z,34.72
2023-05-01T10:46:39.896Z,34.91
2023-05-01T10:47:46.946Z,35.40
2023-05-01T10:48:59.927Z,35.46
2023-05-01T10:50:07.746Z,35.29
2023-05-01T10:51:12.886Z,35.50
2023-05-01T10:52:16.605Z,35.44
2023-05-01T10:53:20.508Z,35.52
2023-05-01T10:54:27.677Z,35.28
2023-05-01T10:55:35.754Z,35.08
2023-05-01T10:56:44.689Z,35.53
2023-05-01T10:57:48.478Z,34.83
2023-05-01T10:59:00.141Z,34.83
2023-05-01T11:00:13.643Z,35.11
2023-05-01T11:01:34.970Z,35.05
2023-05-01T11:02:38.789Z,35.54
2023-05-01T11:03:42.597Z,35.32
2023-05-01T11:04:52.762Z,35.67
2023-05-01T11:06:09.372Z,35.58
2023-05-01T11:07:17.104Z,35.09
2023-05-01T11:08:33.265Z,35.06
2023-05-01T11:09:41.063Z,35.75
2023-05-01T11:10:44.937Z,35.02
2023-05-01T11:11:53.412Z,35.27
2023-05-01T11:12:59.740Z,35.33
2023-05-01T11:14:04.391Z,35.41
2023-05-01T11:15:09.743Z,35.26
2023-05-01T11:16:43.504Z,35.27
2023-05-01T11:17:48.526Z,35.46
2023-05-01T11:18:52.323Z,35.53
2023-05-01T11:19:56.117Z,35.10
2023-05-01T11:21:00.196Z,35.32
2023-05-01T11:22:12.531Z,35.73
2023-05-01T11:23:20.427Z,35.13
2023-05-01T11:24:33.206Z,35.21
2023-05-01T11:25:36.929Z,35.47
2023-05-01T11:26:41.729Z,35.53
2023-05-01T11:27:49.515Z,35.41
2023-05-01T11:28:56.632Z,35.58
2023-05-01T11:30:00.814Z,35.78
2023-05-01T11:31:04.680Z,36.08
2023-05-01T11:32:10.354Z,36.15
2023-05-01T11:33:15.261Z,36.06
2023-05-01T11:34:19.394Z,36.10
2023-05-01T11:35:24.505Z,36.00
2023-05-01T11:36:28.726Z,36.30
2023-05-01T11:37:45.757Z,36.15
2023-05-01T11:38:52.691Z,36.38
2023-05-01T11:39:56.501Z,36.39
2023-05-01T11:41:02.158Z,36.46
2023-05-01T11:42:09.027Z,36.31
2023-05-01T11:43:14.393Z,35.93
2023-05-01T11:44:19.000Z,36.03
2023-05-01T11:45:22.730Z,36.29
2023-05-01T11:46:27.071Z,36.30
2023-05-01T11:47:33.904Z,36.47
2023-05-01T11:48:38.010Z,36.37
2023-05-01T11:49:42.127Z,36.56
2023-05-01T11:50:45.854Z,36.73
2023-05-01T11:51:58.615Z,36.21
2023-05-01T11:53:02.301Z,36.48
2023-05-01T11:54:07.466Z,35.99
2023-05-01T11:55:11.315Z,36.23
2023-05-01T11:56:26.684Z,36.93
2023-05-01T11:57:31.202Z,36.50
2023-05-01T11:58:36.762Z,36.33
2023-05-01T11:59:40.437Z,36.72
2023-05-01T12:00:44.661Z,36.82
2023-05-01T12:01:48.985Z,36.47
2023-05-01T12:03:03.416Z,36.48
2023-05-01T12:04:07.967Z,36.67
2023-05-01T12:05:18.123Z,36.78
2023-05-01T12:06:22.128Z,36.72
2023-05-01T12:07:26.041Z,36.70
2023-05-01T12:08:29.819Z,36.88
2023-05-01T12:09:34.283Z,36.92
2023-05-01T12:10:38.853Z,37.28
2023-05-01T12:11:43.076Z,37.36
2023-05-01T12:12:47.698Z,37.72
2023-05-01T12:13:53.818Z,37.29
2023-05-01T12:14:57.767Z,37.34
2023-05-01T12:16:02.162Z,37.66
2023-05-01T12:17:07.710Z,37.66
2023-05-01T12:18:12.149Z,38.04
2023-05-01T12:19:16.877Z,37.91
2023-05-01T12:20:36.212Z,38.12
2023-05-01T12:21:40.459Z,38.52
2023-05-01T12:22:53.024Z,38.44
2023-05-01T12:23:56.736Z,38.14
2023-05-01T12:25:00.971Z,38.01
2023-05-01T12:26:17.629Z,38.34
2023-05-01T12:27:21.666Z,38.47
2023-05-01T12:28:25.601Z,38.20
2023-05-01T12:29:40.914Z,38.48
2023-05-01T12:30:45.280Z,38.28
2023-05-01T12:31:50.034Z,38.22
2023-05-01T12:32:54.127Z,38.60
2023-05-01T12:33:58.920Z,38.34
2023-05-01T12:35:12.768Z,38.57
2023-05-01T12:36:16.608Z,38.44
2023-05-01T12:37:20.388Z,38.75
2023-05-01T12:38:25.161Z,38.59
2023-05-01T12:39:39.053Z,39.02
2023-05-01T12:40:50.990Z,38.86
2023-05-01T12:41:55.079Z,39.11
2023-05-01T12:42:59.014Z,38.64
2023-05-01T12:44:05.181Z,38.65
2023-05-01T12:46:33.248Z,38.61
2023-05-01T12:47:38.397Z,39.32
2023-05-01T12:48:42.456Z,38.85
2023-05-01T12:49:46.298Z,38.89
2023-05-01T12:50:51.588Z,38.77
2023-05-01T12:51:56.814Z,38.87
2023-05-01T12:53:03.982Z,39.03
2023-05-01T12:54:07.710Z,39.24
2023-05-01T12:55:11.986Z,39.13
2023-05-01T12:56:23.334Z,39.40
2023-05-01T12:57:27.052Z,39.18
2023-05-01T12:58:37.285Z,39.34
2023-05-01T12:59:42.323Z,39.51
2023-05-01T13:00:52.876Z,39.37
2023-05-01T13:02:00.800Z,39.09
2023-05-01T13:03:06.011Z,39.32
2023-05-01T13:04:10.102Z,39.29
2023-05-01T13:05:13.937Z,39.47
2023-05-01T13:06:17.912Z,39.16
2023-05-01T13:07:21.852Z,39.34
2023-05-01T13:08:30.077Z,39.10
2023-05-01T13:09:34.173Z,39.67
2023-05-01T13:10:38.055Z,39.35
2023-05-01T13:11:42.477Z,39.43
2023-05-01T13:12:46.436Z,39.19
2023-05-01T13:13:51.138Z,39.21
2023-05-01T13:14:55.519Z,39.43
2023-05-01T13:16:12.755Z,39.41
2023-05-01T13:17:24.500Z,38.97
2023-05-01T13:18:28.579Z,39.35
2023-05-01T13:19:32.287Z,39.71
2023-05-01T13:20:39.166Z,39.44
2023-05-01T13:21:48.556Z,39.70
2023-05-01T13:22:52.378Z,39.51
2023-05-01T13:23:57.417Z,39.54
2023-05-01T13:25:02.172Z,39.70
2023-05-01T13:26:07.299Z,39.33
2023-05-01T13:27:11.285Z,39.80
2023-05-01T13:28:19.454Z,39.73
2023-05-01T13:29:24.456Z,39.85
2023-05-01T13:30:35.843Z,39.90
2023-05-01T13:32:13.092Z,39.98
2023-05-01T13:33:19.699Z,40.11
2023-05-01T13:34:32.683Z,39.97
2023-05-01T13:35:36.421Z,40.01
2023-05-01T13:36:41.710Z,40.19
2023-05-01T13:37:45.554Z,40.07
2023-05-01T13:38:50.780Z,40.69
2023-05-01T13:39:58.788Z,40.47
2023-05-01T13:41:06.096Z,40.44
2023-05-01T13:42:10.150Z,40.39
2023-05-01T13:43:16.021Z,41.10
2023-05-01T13:44:23.179Z,41.21
2023-05-01T13:45:27.904Z,41.10
2023-05-01T13:46:32.218Z,41.06
2023-05-01T13:47:40.447Z,40.97
2023-05-01T13:48:44.612Z,40.67
2023-05-01T13:49:48.393Z,41.41
2023-05-01T13:50:52.059Z,41.01
2023-05-01T13:51:55.828Z,41.16
2023-05-01T13:52:59.488Z,41.08
2023-05-01T13:54:05.285Z,41.21
2023-05-01T13:55:09.677Z,41.67
2023-05-01T13:56:13.538Z,42.36
2023-05-01T13:57:19.358Z,41.80
2023-05-01T13:58:23.501Z,41.86
2023-05-01T13:59:37.584Z,42.56
2023-05-01T14:00:45.338Z,43.20
2023-05-01T14:01:52.942Z,42.79
2023-05-01T14:02:58.450Z,43.09
2023-05-01T14:04:02.860Z,42.57
2023-05-01T14:05:12.108Z,42.63
2023-05-01T14:09:39.861Z,43.50
2023-05-01T14:10:52.423Z,43.87
2023-05-01T14:11:56.982Z,42.79
2023-05-01T14:13:01.264Z,43.20
2023-05-01T14:15:42.592Z,43.88
2023-05-01T14:17:04.389Z,43.24